sensor_id;sensor_type;location;lat;lon;timestamp;pressure;altitude;pressure_sealevel;temperature;humidity
66486;BME280;53303;47.476;8.084;2023-02-28T00:00:33;95478.09;;;18.63;30.09
66486;BME280;53303;47.476;8.084;2023-02-28T00:02:59;95476.56;;;18.62;29.96
66486;BME280;53303;47.476;8.084;2023-02-28T00:05:27;95474.31;;;18.60;30.08
66486;BME280;53303;47.476;8.084;2023-02-28T00:07:54;95480.09;;;18.62;29.97
66486;BME280;53303;47.476;8.084;2023-02-28T00:10:26;95475.34;;;18.63;29.96
66486;BME280;53303;47.476;8.084;2023-02-28T00:12:54;95473.81;;;18.62;29.98
66486;BME280;53303;47.476;8.084;2023-02-28T00:15:22;95471.81;;;18.62;30.04
66486;BME280;53303;47.476;8.084;2023-02-28T00:17:48;95469.75;;;18.52;30.13
66486;BME280;53303;47.476;8.084;2023-02-28T00:20:14;95481.34;;;18.61;30.03
66486;BME280;53303;47.476;8.084;2023-02-28T00:22:44;95474.31;;;18.60;29.94
66486;BME280;53303;47.476;8.084;2023-02-28T00:25:12;95471.81;;;18.62;29.96
66486;BME280;53303;47.476;8.084;2023-02-28T00:27:39;95471.06;;;18.62;29.93
66486;BME280;53303;47.476;8.084;2023-02-28T00:30:06;95471.06;;;18.62;29.87
66486;BME280;53303;47.476;8.084;2023-02-28T00:32:33;95469.56;;;18.61;29.83
66486;BME280;53303;47.476;8.084;2023-02-28T00:34:59;95474.56;;;18.62;29.85
66486;BME280;53303;47.476;8.084;2023-02-28T00:37:25;95466.75;;;18.55;30.14
66486;BME280;53303;47.476;8.084;2023-02-28T00:39:50;95475.09;;;18.61;29.87
66486;BME280;53303;47.476;8.084;2023-02-28T00:42:16;95470.78;;;18.60;29.86
66486;BME280;53303;47.476;8.084;2023-02-28T00:44:41;95468.03;;;18.60;30.12
66486;BME280;53303;47.476;8.084;2023-02-28T00:47:07;95468.03;;;18.60;29.99
66486;BME280;53303;47.476;8.084;2023-02-28T00:49:32;95464.53;;;18.59;30.11
66486;BME280;53303;47.476;8.084;2023-02-28T00:52:00;95468.03;;;18.60;30.04
66486;BME280;53303;47.476;8.084;2023-02-28T00:54:26;95464.53;;;18.59;29.85
66486;BME280;53303;47.476;8.084;2023-02-28T00:56:51;95460.22;;;18.53;30.04
66486;BME280;53303;47.476;8.084;2023-02-28T00:59:19;95470.06;;;18.59;29.94
66486;BME280;53303;47.476;8.084;2023-02-28T01:01:49;95466.50;;;18.59;29.94
66486;BME280;53303;47.476;8.084;2023-02-28T01:04:15;95472.81;;;18.59;30.11
66486;BME280;53303;47.476;8.084;2023-02-28T01:06:41;95478.09;;;18.57;30.09
66486;BME280;53303;47.476;8.084;2023-02-28T01:09:09;95478.34;;;18.59;29.97
66486;BME280;53303;47.476;8.084;2023-02-28T01:11:38;95475.56;;;18.59;29.95
66486;BME280;53303;47.476;8.084;2023-02-28T01:14:05;95472.03;;;18.59;29.97
66486;BME280;53303;47.476;8.084;2023-02-28T01:16:31;95476.81;;;18.58;30.17
66486;BME280;53303;47.476;8.084;2023-02-28T01:18:57;95462.50;;;18.54;30.07
66486;BME280;53303;47.476;8.084;2023-02-28T01:21:24;95464.53;;;18.59;30.12
66486;BME280;53303;47.476;8.084;2023-02-28T01:23:52;95462.25;;;18.58;30.00
66486;BME280;53303;47.476;8.084;2023-02-28T01:26:23;95460.97;;;18.59;29.78
66486;BME280;53303;47.476;8.084;2023-02-28T01:28:52;95468.53;;;18.58;30.18
66486;BME280;53303;47.476;8.084;2023-02-28T01:31:18;95467.28;;;18.59;29.98
66486;BME280;53303;47.476;8.084;2023-02-28T01:33:45;95470.06;;;18.59;29.94
66486;BME280;53303;47.476;8.084;2023-02-28T01:36:13;95473.56;;;18.60;29.95
66486;BME280;53303;47.476;8.084;2023-02-28T01:38:39;95473.31;;;18.58;30.00
66486;BME280;53303;47.476;8.084;2023-02-28T01:41:06;95470.06;;;18.59;30.13
66486;BME280;53303;47.476;8.084;2023-02-28T01:43:53;95463.47;;;18.51;30.04
66486;BME280;53303;47.476;8.084;2023-02-28T01:46:19;95465.75;;;18.58;29.98
66486;BME280;53303;47.476;8.084;2023-02-28T01:48:49;95453.22;;;18.57;30.02
66486;BME280;53303;47.476;8.084;2023-02-28T01:51:46;95458.47;;;18.55;30.03
66486;BME280;53303;47.476;8.084;2023-02-28T01:54:27;95448.91;;;18.51;29.84
66486;BME280;53303;47.476;8.084;2023-02-28T01:57:07;95452.19;;;18.55;30.02
66486;BME280;53303;47.476;8.084;2023-02-28T01:59:35;95449.19;;;18.58;29.96
66486;BME280;53303;47.476;8.084;2023-02-28T02:02:03;95444.88;;;18.52;30.09
66486;BME280;53303;47.476;8.084;2023-02-28T02:04:37;95423.25;;;18.44;30.01
66486;BME280;53303;47.476;8.084;2023-02-28T02:07:04;95437.38;;;18.58;30.08
66486;BME280;53303;47.476;8.084;2023-02-28T02:09:30;95431.56;;;18.50;29.92
66486;BME280;53303;47.476;8.084;2023-02-28T02:11:56;95441.38;;;18.57;29.96
66486;BME280;53303;47.476;8.084;2023-02-28T02:17:04;95430.31;;;18.57;30.06
66486;BME280;53303;47.476;8.084;2023-02-28T02:25:28;95440.63;;;18.56;30.08
66486;BME280;53303;47.476;8.084;2023-02-28T02:34:05;95421.50;;;18.41;30.19
66486;BME280;53303;47.476;8.084;2023-02-28T02:36:39;95429.31;;;18.54;30.09
66486;BME280;53303;47.476;8.084;2023-02-28T02:42:16;95421.78;;;18.55;30.14
66486;BME280;53303;47.476;8.084;2023-02-28T02:44:45;95426.50;;;18.43;30.20
66486;BME280;53303;47.476;8.084;2023-02-28T02:47:20;95425.03;;;18.48;29.92
66486;BME280;53303;47.476;8.084;2023-02-28T02:49:57;95429.31;;;18.49;30.14
66486;BME280;53303;47.476;8.084;2023-02-28T02:52:32;95432.09;;;18.54;30.19
66486;BME280;53303;47.476;8.084;2023-02-28T02:55:00;95430.06;;;18.55;29.89
66486;BME280;53303;47.476;8.084;2023-02-28T02:57:31;95432.34;;;18.56;30.22
66486;BME280;53303;47.476;8.084;2023-02-28T03:00:06;95421.53;;;18.53;30.22
66486;BME280;53303;47.476;8.084;2023-02-28T03:02:36;95427.56;;;18.57;29.98
66486;BME280;53303;47.476;8.084;2023-02-28T03:05:08;95425.56;;;18.57;30.26
66486;BME280;53303;47.476;8.084;2023-02-28T03:07:37;95426.31;;;18.52;30.09
66486;BME280;53303;47.476;8.084;2023-02-28T03:10:02;95413.75;;;18.51;30.16
66486;BME280;53303;47.476;8.084;2023-02-28T03:12:50;95431.84;;;18.52;30.06
66486;BME280;53303;47.476;8.084;2023-02-28T03:15:27;95437.13;;;18.56;29.93
66486;BME280;53303;47.476;8.084;2023-02-28T03:18:10;95419.50;;;18.53;30.26
66486;BME280;53303;47.476;8.084;2023-02-28T03:23:26;95430.06;;;18.55;30.07
66486;BME280;53303;47.476;8.084;2023-02-28T03:25:59;95420.25;;;18.48;30.35
66486;BME280;53303;47.476;8.084;2023-02-28T03:28:58;95433.59;;;18.55;30.24
66486;BME280;53303;47.476;8.084;2023-02-28T03:34:08;95413.00;;;18.51;30.08
66486;BME280;53303;47.476;8.084;2023-02-28T03:36:44;95410.72;;;18.49;30.09
66486;BME280;53303;47.476;8.084;2023-02-28T03:39:18;95420.53;;;18.56;30.13
66486;BME280;53303;47.476;8.084;2023-02-28T03:41:56;95397.63;;;18.38;30.13
66486;BME280;53303;47.476;8.084;2023-02-28T03:45:13;95418.50;;;18.51;30.29
66486;BME280;53303;47.476;8.084;2023-02-28T03:50:39;95419.75;;;18.50;30.17
66486;BME280;53303;47.476;8.084;2023-02-28T03:55:35;95428.06;;;18.55;30.02
66486;BME280;53303;47.476;8.084;2023-02-28T04:00:46;95421.78;;;18.55;30.26
66486;BME280;53303;47.476;8.084;2023-02-28T04:03:13;95422.53;;;18.55;30.06
66486;BME280;53303;47.476;8.084;2023-02-28T04:05:50;95423.81;;;18.54;30.15
66486;BME280;53303;47.476;8.084;2023-02-28T04:08:19;95429.59;;;18.56;29.89
66486;BME280;53303;47.476;8.084;2023-02-28T04:10:51;95428.34;;;18.57;29.83
66486;BME280;53303;47.476;8.084;2023-02-28T04:13:19;95437.13;;;18.56;30.06
66486;BME280;53303;47.476;8.084;2023-02-28T04:15:47;95437.88;;;18.56;30.17
66486;BME280;53303;47.476;8.084;2023-02-28T04:18:12;95440.63;;;18.56;30.18
66486;BME280;53303;47.476;8.084;2023-02-28T04:20:38;95440.63;;;18.56;30.11
66486;BME280;53303;47.476;8.084;2023-02-28T04:23:05;95444.91;;;18.57;30.11
66486;BME280;53303;47.476;8.084;2023-02-28T04:25:30;95445.66;;;18.52;29.97
66486;BME280;53303;47.476;8.084;2023-02-28T04:27:56;95455.69;;;18.55;30.27
66486;BME280;53303;47.476;8.084;2023-02-28T04:30:21;95461.50;;;18.57;29.98
66486;BME280;53303;47.476;8.084;2023-02-28T04:32:52;95453.22;;;18.57;30.09
66486;BME280;53303;47.476;8.084;2023-02-28T04:35:17;95457.22;;;18.56;30.08
66486;BME280;53303;47.476;8.084;2023-02-28T04:37:42;95453.69;;;18.56;29.99
66486;BME280;53303;47.476;8.084;2023-02-28T04:40:08;95449.66;;;18.57;29.99
66486;BME280;53303;47.476;8.084;2023-02-28T04:42:34;95443.88;;;18.49;30.11
66486;BME280;53303;47.476;8.084;2023-02-28T04:45:04;95461.50;;;18.57;30.21
66486;BME280;53303;47.476;8.084;2023-02-28T04:47:30;95459.47;;;18.58;30.30
66486;BME280;53303;47.476;8.084;2023-02-28T04:49:56;95452.41;;;18.51;30.27
66486;BME280;53303;47.476;8.084;2023-02-28T04:52:21;95461.22;;;18.55;30.13
66486;BME280;53303;47.476;8.084;2023-02-28T04:54:47;95463.50;;;18.57;30.13
66486;BME280;53303;47.476;8.084;2023-02-28T04:57:12;95449.91;;;18.48;30.12
66486;BME280;53303;47.476;8.084;2023-02-28T04:59:40;95467.53;;;18.56;30.22
66486;BME280;53303;47.476;8.084;2023-02-28T05:02:05;95464.47;;;18.54;29.75
66486;BME280;53303;47.476;8.084;2023-02-28T05:04:37;95466.50;;;18.59;29.55
66486;BME280;53303;47.476;8.084;2023-02-28T05:07:03;95469.78;;;18.57;30.00
66486;BME280;53303;47.476;8.084;2023-02-28T05:09:29;95468.00;;;18.54;29.71
66486;BME280;53303;47.476;8.084;2023-02-28T05:11:55;95468.75;;;18.55;29.77
66486;BME280;53303;47.476;8.084;2023-02-28T05:14:20;95465.25;;;18.54;29.83
66486;BME280;53303;47.476;8.084;2023-02-28T05:16:46;95433.75;;;18.29;29.84
66486;BME280;53303;47.476;8.084;2023-02-28T05:19:11;95474.03;;;18.53;29.82
66486;BME280;53303;47.476;8.084;2023-02-28T05:21:40;95472.75;;;18.54;29.80
66486;BME280;53303;47.476;8.084;2023-02-28T05:24:09;95457.94;;;18.45;29.85
66486;BME280;53303;47.476;8.084;2023-02-28T05:26:37;95479.81;;;18.55;29.95
66486;BME280;53303;47.476;8.084;2023-02-28T05:29:05;95459.41;;;18.46;29.85
66486;BME280;53303;47.476;8.084;2023-02-28T05:31:33;95470.75;;;18.49;29.76
66486;BME280;53303;47.476;8.084;2023-02-28T05:33:59;95471.50;;;18.49;30.04
66486;BME280;53303;47.476;8.084;2023-02-28T05:36:25;95466.75;;;18.55;30.02
66486;BME280;53303;47.476;8.084;2023-02-28T05:38:51;95460.94;;;18.48;29.98
66486;BME280;53303;47.476;8.084;2023-02-28T05:41:19;95472.28;;;18.55;29.97
66486;BME280;53303;47.476;8.084;2023-02-28T05:43:45;95469.50;;;18.55;29.84
66486;BME280;53303;47.476;8.084;2023-02-28T05:46:11;95476.31;;;18.54;29.87
66486;BME280;53303;47.476;8.084;2023-02-28T05:48:39;95473.03;;;18.56;30.07
66486;BME280;53303;47.476;8.084;2023-02-28T05:51:05;95474.78;;;18.53;29.87
66486;BME280;53303;47.476;8.084;2023-02-28T05:53:31;95456.38;;;18.39;29.94
66486;BME280;53303;47.476;8.084;2023-02-28T05:55:57;95477.78;;;18.55;29.81
66486;BME280;53303;47.476;8.084;2023-02-28T05:58:23;95481.81;;;18.54;29.80
66486;BME280;53303;47.476;8.084;2023-02-28T06:00:50;95482.56;;;18.55;30.37
66486;BME280;53303;47.476;8.084;2023-02-28T06:03:16;95478.03;;;18.52;29.87
66486;BME280;53303;47.476;8.084;2023-02-28T06:05:41;95484.06;;;18.50;30.05
66486;BME280;53303;47.476;8.084;2023-02-28T06:08:07;95492.88;;;18.54;29.92
66486;BME280;53303;47.476;8.084;2023-02-28T06:10:35;95475.25;;;18.46;30.08
66486;BME280;53303;47.476;8.084;2023-02-28T06:13:02;95478.28;;;18.48;29.98
66486;BME280;53303;47.476;8.084;2023-02-28T06:15:30;95488.34;;;18.51;30.06
66486;BME280;53303;47.476;8.084;2023-02-28T06:17:56;95494.63;;;18.52;30.03
66486;BME280;53303;47.476;8.084;2023-02-28T06:20:22;95496.13;;;18.53;30.04
66486;BME280;53303;47.476;8.084;2023-02-28T06:22:48;95486.31;;;18.46;30.03
66486;BME280;53303;47.476;8.084;2023-02-28T06:25:15;95486.31;;;18.46;30.19
66486;BME280;53303;47.476;8.084;2023-02-28T06:27:41;95493.59;;;18.49;30.11
66486;BME280;53303;47.476;8.084;2023-02-28T06:30:07;95497.38;;;18.52;30.11
66486;BME280;53303;47.476;8.084;2023-02-28T06:32:32;95499.38;;;18.51;30.14
66486;BME280;53303;47.476;8.084;2023-02-28T06:34:58;95503.41;;;18.50;30.07
66486;BME280;53303;47.476;8.084;2023-02-28T06:37:23;95514.72;;;18.52;30.13
66486;BME280;53303;47.476;8.084;2023-02-28T06:39:52;95507.91;;;18.48;30.18
66486;BME280;53303;47.476;8.084;2023-02-28T06:42:17;95514.72;;;18.52;30.09
66486;BME280;53303;47.476;8.084;2023-02-28T06:44:43;95511.19;;;18.52;30.17
66486;BME280;53303;47.476;8.084;2023-02-28T06:47:09;95511.44;;;18.48;30.22
66486;BME280;53303;47.476;8.084;2023-02-28T06:49:35;95502.38;;;18.48;30.05
66486;BME280;53303;47.476;8.084;2023-02-28T06:52:01;95506.13;;;18.44;30.07
66486;BME280;53303;47.476;8.084;2023-02-28T06:54:27;95512.47;;;18.51;29.95
66486;BME280;53303;47.476;8.084;2023-02-28T06:56:55;95516.94;;;18.48;29.99
66486;BME280;53303;47.476;8.084;2023-02-28T06:59:20;95498.88;;;18.47;30.17
66486;BME280;53303;47.476;8.084;2023-02-28T07:01:46;95511.16;;;18.46;30.13
66486;BME280;53303;47.476;8.084;2023-02-28T07:04:11;95517.97;;;18.51;30.11
66486;BME280;53303;47.476;8.084;2023-02-28T07:06:38;95518.72;;;18.51;30.13
66486;BME280;53303;47.476;8.084;2023-02-28T07:09:03;95522.72;;;18.50;30.08
66486;BME280;53303;47.476;8.084;2023-02-28T07:11:29;95519.47;;;18.46;29.97
66486;BME280;53303;47.476;8.084;2023-02-28T07:13:55;95522.72;;;18.50;30.14
66486;BME280;53303;47.476;8.084;2023-02-28T07:16:21;95526.28;;;18.51;30.13
66486;BME280;53303;47.476;8.084;2023-02-28T07:18:47;95524.00;;;18.49;30.27
66486;BME280;53303;47.476;8.084;2023-02-28T07:21:15;95518.47;;;18.49;29.96
66486;BME280;53303;47.476;8.084;2023-02-28T07:23:41;95519.97;;;18.50;30.10
66486;BME280;53303;47.476;8.084;2023-02-28T07:26:11;95519.97;;;18.50;30.16
66486;BME280;53303;47.476;8.084;2023-02-28T07:28:38;95527.03;;;18.51;29.90
66486;BME280;53303;47.476;8.084;2023-02-28T07:31:07;95522.72;;;18.50;30.27
66486;BME280;53303;47.476;8.084;2023-02-28T07:33:33;95522.97;;;18.46;29.97
66486;BME280;53303;47.476;8.084;2023-02-28T07:36:09;95528.25;;;18.50;30.09
66486;BME280;53303;47.476;8.084;2023-02-28T07:38:39;95531.53;;;18.49;30.07
66486;BME280;53303;47.476;8.084;2023-02-28T07:41:04;95531.03;;;18.50;30.02
66486;BME280;53303;47.476;8.084;2023-02-28T07:43:33;95535.81;;;18.50;30.07
66486;BME280;53303;47.476;8.084;2023-02-28T07:46:07;95531.53;;;18.49;30.08
66486;BME280;53303;47.476;8.084;2023-02-28T07:48:34;95532.03;;;18.47;30.02
66486;BME280;53303;47.476;8.084;2023-02-28T07:51:00;95532.78;;;18.48;30.02
66486;BME280;53303;47.476;8.084;2023-02-28T07:53:28;95540.59;;;18.49;30.15
66486;BME280;53303;47.476;8.084;2023-02-28T07:55:58;95545.63;;;18.51;30.07
66486;BME280;53303;47.476;8.084;2023-02-28T07:58:24;95553.13;;;18.50;30.03
66486;BME280;53303;47.476;8.084;2023-02-28T08:00:50;95548.88;;;18.49;29.95
66486;BME280;53303;47.476;8.084;2023-02-28T08:03:20;95556.41;;;18.49;29.97
66486;BME280;53303;47.476;8.084;2023-02-28T08:05:46;95548.59;;;18.41;29.79
66486;BME280;53303;47.476;8.084;2023-02-28T08:08:13;95552.38;;;18.50;29.97
66486;BME280;53303;47.476;8.084;2023-02-28T08:10:38;95548.13;;;18.49;29.98
66486;BME280;53303;47.476;8.084;2023-02-28T08:13:06;95550.88;;;18.49;29.94
66486;BME280;53303;47.476;8.084;2023-02-28T08:15:31;95545.34;;;18.49;30.12
66486;BME280;53303;47.476;8.084;2023-02-28T08:17:57;95557.91;;;18.50;29.84
66486;BME280;53303;47.476;8.084;2023-02-28T08:20:24;95559.63;;;18.41;30.05
66486;BME280;53303;47.476;8.084;2023-02-28T08:22:49;95565.44;;;18.49;30.16
66486;BME280;53303;47.476;8.084;2023-02-28T08:25:15;95560.66;;;18.44;29.90
66486;BME280;53303;47.476;8.084;2023-02-28T08:27:43;95557.13;;;18.43;29.81
66486;BME280;53303;47.476;8.084;2023-02-28T08:30:13;95555.63;;;18.48;29.94
66486;BME280;53303;47.476;8.084;2023-02-28T08:32:41;95560.41;;;18.48;30.20
66486;BME280;53303;47.476;8.084;2023-02-28T08:35:07;95564.69;;;18.49;29.90
66486;BME280;53303;47.476;8.084;2023-02-28T08:37:34;95561.66;;;18.46;29.92
66486;BME280;53303;47.476;8.084;2023-02-28T08:39:59;95552.84;;;18.42;29.98
66486;BME280;53303;47.476;8.084;2023-02-28T08:42:25;95567.47;;;18.49;29.94
66486;BME280;53303;47.476;8.084;2023-02-28T08:44:54;95559.13;;;18.43;29.92
66486;BME280;53303;47.476;8.084;2023-02-28T08:47:22;95565.44;;;18.49;30.12
66486;BME280;53303;47.476;8.084;2023-02-28T08:49:47;95560.41;;;18.48;29.98
66486;BME280;53303;47.476;8.084;2023-02-28T08:52:13;95566.19;;;18.50;30.03
66486;BME280;53303;47.476;8.084;2023-02-28T08:54:38;95571.72;;;18.50;29.90
66486;BME280;53303;47.476;8.084;2023-02-28T08:57:04;95568.97;;;18.50;29.96
66486;BME280;53303;47.476;8.084;2023-02-28T08:59:32;95570.97;;;18.49;29.97
66486;BME280;53303;47.476;8.084;2023-02-28T09:01:57;95582.78;;;18.50;29.84
66486;BME280;53303;47.476;8.084;2023-02-28T09:04:23;95582.78;;;18.50;29.85
66486;BME280;53303;47.476;8.084;2023-02-28T09:06:48;95586.28;;;18.50;30.17
66486;BME280;53303;47.476;8.084;2023-02-28T09:09:14;95573.75;;;18.49;29.64
66486;BME280;53303;47.476;8.084;2023-02-28T09:11:42;95568.97;;;18.50;29.98
66486;BME280;53303;47.476;8.084;2023-02-28T09:14:07;95583.25;;;18.48;29.86
66486;BME280;53303;47.476;8.084;2023-02-28T09:16:35;95572.47;;;18.50;29.81
66486;BME280;53303;47.476;8.084;2023-02-28T09:19:01;95573.00;;;18.49;29.95
66486;BME280;53303;47.476;8.084;2023-02-28T09:21:27;95579.53;;;18.51;29.87
66486;BME280;53303;47.476;8.084;2023-02-28T09:23:53;95576.75;;;18.51;29.98
66486;BME280;53303;47.476;8.084;2023-02-28T09:26:25;95571.97;;;18.52;30.04
66486;BME280;53303;47.476;8.084;2023-02-28T09:28:52;95577.50;;;18.52;29.77
66486;BME280;53303;47.476;8.084;2023-02-28T09:31:23;95568.41;;;18.40;29.98
66486;BME280;53303;47.476;8.084;2023-02-28T09:33:51;95580.28;;;18.52;29.78
66486;BME280;53303;47.476;8.084;2023-02-28T09:36:20;95576.75;;;18.51;29.98
66486;BME280;53303;47.476;8.084;2023-02-28T09:38:45;95576.00;;;18.51;29.98
66486;BME280;53303;47.476;8.084;2023-02-28T09:41:23;95584.78;;;18.49;29.88
66486;BME280;53303;47.476;8.084;2023-02-28T09:43:53;95566.63;;;18.37;29.99
66486;BME280;53303;47.476;8.084;2023-02-28T09:46:33;95588.31;;;18.50;29.84
66486;BME280;53303;47.476;8.084;2023-02-28T09:49:05;95589.28;;;18.46;29.93
66486;BME280;53303;47.476;8.084;2023-02-28T09:54:15;95590.31;;;18.49;30.03
66486;BME280;53303;47.476;8.084;2023-02-28T09:56:50;95602.59;;;18.48;29.95
66486;BME280;53303;47.476;8.084;2023-02-28T09:59:48;95591.56;;;18.48;29.86
66486;BME280;53303;47.476;8.084;2023-02-28T10:05:13;95592.09;;;18.52;29.89
66486;BME280;53303;47.476;8.084;2023-02-28T10:10:40;95609.44;;;18.53;29.85
66486;BME280;53303;47.476;8.084;2023-02-28T10:13:14;95605.38;;;18.48;29.90
66486;BME280;53303;47.476;8.084;2023-02-28T10:15:42;95611.72;;;18.54;29.97
66486;BME280;53303;47.476;8.084;2023-02-28T10:18:15;95607.41;;;18.53;29.65
66486;BME280;53303;47.476;8.084;2023-02-28T10:20:45;95601.84;;;18.48;29.91
66486;BME280;53303;47.476;8.084;2023-02-28T10:23:14;95619.22;;;18.54;29.96
66486;BME280;53303;47.476;8.084;2023-02-28T10:25:46;95614.47;;;18.54;29.95
66486;BME280;53303;47.476;8.084;2023-02-28T10:28:17;95619.22;;;18.54;29.84
66486;BME280;53303;47.476;8.084;2023-02-28T10:30:53;95617.22;;;18.54;29.82
66486;BME280;53303;47.476;8.084;2023-02-28T10:35:53;95625.53;;;18.54;29.71
66486;BME280;53303;47.476;8.084;2023-02-28T10:38:25;95622.44;;;18.46;30.11
66486;BME280;53303;47.476;8.084;2023-02-28T10:40:51;95614.47;;;18.54;29.81
66486;BME280;53303;47.476;8.084;2023-02-28T10:48:30;95631.81;;;18.55;29.77
66486;BME280;53303;47.476;8.084;2023-02-28T10:50:57;95613.41;;;18.46;29.91
66486;BME280;53303;47.476;8.084;2023-02-28T10:56:19;95636.81;;;18.51;29.96
66486;BME280;53303;47.476;8.084;2023-02-28T11:01:18;95634.06;;;18.56;30.06
66486;BME280;53303;47.476;8.084;2023-02-28T11:03:44;95621.72;;;18.52;29.94
66486;BME280;53303;47.476;8.084;2023-02-28T11:06:25;95621.50;;;18.55;29.97
66486;BME280;53303;47.476;8.084;2023-02-28T11:08:54;95627.03;;;18.55;30.07
66486;BME280;53303;47.476;8.084;2023-02-28T11:11:21;95625.78;;;18.56;29.96
66486;BME280;53303;47.476;8.084;2023-02-28T11:13:51;95624.53;;;18.57;30.22
66486;BME280;53303;47.476;8.084;2023-02-28T11:16:18;95633.59;;;18.58;30.25
66486;BME280;53303;47.476;8.084;2023-02-28T11:18:54;95624.53;;;18.57;29.94
66486;BME280;53303;47.476;8.084;2023-02-28T11:21:27;95630.06;;;18.57;30.11
66486;BME280;53303;47.476;8.084;2023-02-28T11:26:42;95638.38;;;18.57;30.20
66486;BME280;53303;47.476;8.084;2023-02-28T11:32:03;95626.75;;;18.53;30.21
66486;BME280;53303;47.476;8.084;2023-02-28T11:34:30;95634.34;;;18.58;30.15
66486;BME280;53303;47.476;8.084;2023-02-28T11:36:58;95641.88;;;18.58;30.40
66486;BME280;53303;47.476;8.084;2023-02-28T11:39:25;95632.31;;;18.59;30.19
66486;BME280;53303;47.476;8.084;2023-02-28T11:44:25;95635.09;;;18.59;30.30
66486;BME280;53303;47.476;8.084;2023-02-28T11:50:16;95634.81;;;18.57;30.28
66486;BME280;53303;47.476;8.084;2023-02-28T11:52:51;95649.41;;;18.57;30.32
66486;BME280;53303;47.476;8.084;2023-02-28T11:58:17;95636.09;;;18.56;30.12
66486;BME280;53303;47.476;8.084;2023-02-28T12:01:03;95633.59;;;18.58;30.43
66486;BME280;53303;47.476;8.084;2023-02-28T12:27:21;95628.50;;;18.51;30.36
66486;BME280;53303;47.476;8.084;2023-02-28T12:30:02;95618.97;;;18.52;30.40
66486;BME280;53303;47.476;8.084;2023-02-28T12:32:37;95620.50;;;18.58;30.30
66486;BME280;53303;47.476;8.084;2023-02-28T12:41:13;95616.47;;;18.54;30.45
66486;BME280;53303;47.476;8.084;2023-02-28T12:43:20;95624.53;;;18.57;30.39
66486;BME280;53303;47.476;8.084;2023-02-28T12:45:55;95626.03;;;18.58;30.50
66486;BME280;53303;47.476;8.084;2023-02-28T12:48:27;95626.03;;;18.58;30.24
66486;BME280;53303;47.476;8.084;2023-02-28T12:50:56;95618.22;;;18.51;30.28
66486;BME280;53303;47.476;8.084;2023-02-28T12:53:27;95626.31;;;18.60;30.25
66486;BME280;53303;47.476;8.084;2023-02-28T12:58:51;95626.31;;;18.60;30.19
66486;BME280;53303;47.476;8.084;2023-02-28T13:01:51;95628.53;;;18.56;30.34
66486;BME280;53303;47.476;8.084;2023-02-28T13:09:25;95624.81;;;18.59;30.08
66486;BME280;53303;47.476;8.084;2023-02-28T13:11:52;95619.22;;;18.54;30.14
66486;BME280;53303;47.476;8.084;2023-02-28T13:14:26;95628.31;;;18.60;30.21
66486;BME280;53303;47.476;8.084;2023-02-28T13:19:29;95612.19;;;18.53;30.26
66486;BME280;53303;47.476;8.084;2023-02-28T13:21:56;95628.31;;;18.60;30.37
66486;BME280;53303;47.476;8.084;2023-02-28T13:24:44;95627.31;;;18.57;30.48
66486;BME280;53303;47.476;8.084;2023-02-28T13:29:44;95630.59;;;18.61;30.16
66486;BME280;53303;47.476;8.084;2023-02-28T13:32:25;95631.75;;;18.49;30.56
66486;BME280;53303;47.476;8.084;2023-02-28T13:35:13;95630.28;;;18.54;30.20
66486;BME280;53303;47.476;8.084;2023-02-28T13:37:43;95628.81;;;18.58;30.39
66486;BME280;53303;47.476;8.084;2023-02-28T13:48:03;95640.34;;;18.57;30.40
66486;BME280;53303;47.476;8.084;2023-02-28T13:50:30;95631.31;;;18.56;30.40
66486;BME280;53303;47.476;8.084;2023-02-28T13:58:46;95642.13;;;18.60;30.26
66486;BME280;53303;47.476;8.084;2023-02-28T14:02:07;95637.84;;;18.59;30.36
66486;BME280;53303;47.476;8.084;2023-02-28T14:07:03;95639.09;;;18.52;30.36
66486;BME280;53303;47.476;8.084;2023-02-28T14:09:34;95646.44;;;18.61;30.24
66486;BME280;53303;47.476;8.084;2023-02-28T14:17:54;95651.66;;;18.59;30.18
66486;BME280;53303;47.476;8.084;2023-02-28T14:20:22;95651.19;;;18.60;30.44
66486;BME280;53303;47.476;8.084;2023-02-28T14:25:34;95656.69;;;18.60;30.20
66486;BME280;53303;47.476;8.084;2023-02-28T14:28:18;95651.19;;;18.60;30.19
66486;BME280;53303;47.476;8.084;2023-02-28T14:31:06;95652.38;;;18.54;30.15
66486;BME280;53303;47.476;8.084;2023-02-28T14:36:14;95642.84;;;18.55;30.10
66486;BME280;53303;47.476;8.084;2023-02-28T14:38:51;95652.94;;;18.58;30.25
66486;BME280;53303;47.476;8.084;2023-02-28T14:41:35;95654.94;;;18.57;30.30
66486;BME280;53303;47.476;8.084;2023-02-28T14:46:42;95659.22;;;18.58;30.13
66486;BME280;53303;47.476;8.084;2023-02-28T14:49:41;95624.91;;;18.39;29.98
66486;BME280;53303;47.476;8.084;2023-02-28T14:52:15;95666.00;;;18.57;30.15
66486;BME280;53303;47.476;8.084;2023-02-28T14:54:45;95663.13;;;18.46;30.24
66486;BME280;53303;47.476;8.084;2023-02-28T14:57:41;95661.41;;;18.49;30.23
66486;BME280;53303;47.476;8.084;2023-02-28T15:02:38;95665.19;;;18.51;30.13
66486;BME280;53303;47.476;8.084;2023-02-28T15:07:42;95682.56;;;18.57;30.18
66486;BME280;53303;47.476;8.084;2023-02-28T15:10:20;95667.22;;;18.56;30.12
66486;BME280;53303;47.476;8.084;2023-02-28T15:12:55;95673.94;;;18.44;30.40
66486;BME280;53303;47.476;8.084;2023-02-28T15:18:03;95684.31;;;18.55;30.06
66486;BME280;53303;47.476;8.084;2023-02-28T15:20:31;95680.31;;;18.56;30.07
66486;BME280;53303;47.476;8.084;2023-02-28T15:22:57;95670.75;;;18.57;30.17
66486;BME280;53303;47.476;8.084;2023-02-28T15:25:24;95676.00;;;18.55;30.29
66486;BME280;53303;47.476;8.084;2023-02-28T15:27:53;95677.53;;;18.56;29.99
66486;BME280;53303;47.476;8.084;2023-02-28T15:30:26;95674.28;;;18.57;30.25
66486;BME280;53303;47.476;8.084;2023-02-28T15:35:37;95675.25;;;18.54;30.25
66486;BME280;53303;47.476;8.084;2023-02-28T15:38:13;95679.81;;;18.57;30.28
66486;BME280;53303;47.476;8.084;2023-02-28T15:40:58;95667.94;;;18.51;30.43
66486;BME280;53303;47.476;8.084;2023-02-28T15:43:28;95676.28;;;18.57;30.41